Time;durP1;ratioP1;P1;durP2;ratioP2;P2;SDS_P1;SDS_P2;PMS_P1;PMS_P2;Temp;Humidity;BMP_temperature;BMP_pressure;BME280_temperature;BME280_humidity;BME280_pressure;Samples;Min_cycle;Max_cycle;Signal;HPM_P1;HPM_P2
2023/04/19 00:02:17;;;;;;;30.10;6.40;;;;;;;6.04;100.00;100847.30;106055;1252;61682;-50
2023/04/19 00:04:46;;;;;;;20.90;5.70;;;;;;;5.98;100.00;100862.84;105981;1251;73457;-50
2023/04/19 00:07:15;;;;;;;15.40;5.00;;;;;;;5.94;100.00;100874.80;106041;1254;65671;-51
2023/04/19 00:09:44;;;;;;;15.70;5.10;;;;;;;5.91;100.00;100886.75;106000;1254;73107;-50
2023/04/19 00:12:12;;;;;;;19.20;5.60;;;;;;;5.86;100.00;100893.40;105997;1252;62557;-50
2023/04/19 00:14:41;;;;;;;17.80;5.00;;;;;;;5.80;100.00;100903.64;106007;1251;61558;-51
2023/04/19 00:17:10;;;;;;;24.50;6.60;;;;;;;5.75;100.00;100915.41;106013;1251;73290;-50
2023/04/19 00:19:38;;;;;;;16.50;5.60;;;;;;;5.72;100.00;100929.25;105987;1254;64934;-50
2023/04/19 00:22:07;;;;;;;19.60;5.80;;;;;;;5.68;100.00;100935.02;105992;1252;73819;-50
2023/04/19 00:24:35;;;;;;;18.60;5.00;;;;;;;5.64;100.00;100935.50;105943;1254;61661;-50
2023/04/19 00:27:04;;;;;;;14.60;5.30;;;;;;;5.60;100.00;100935.30;106013;1250;61847;-50
2023/04/19 00:29:33;;;;;;;20.40;5.40;;;;;;;5.54;100.00;100934.74;106007;1251;74651;-50
2023/04/19 00:32:04;;;;;;;14.50;5.00;;;;;;;5.52;100.00;100934.88;105952;1254;66056;-50
2023/04/19 00:34:33;;;;;;;18.00;4.80;;;;;;;5.49;100.00;100939.81;106030;1251;74117;-51
2023/04/19 00:37:03;;;;;;;15.60;5.20;;;;;;;5.46;100.00;100938.42;106074;1256;62092;-52
2023/04/19 00:39:33;;;;;;;23.70;5.30;;;;;;;5.44;100.00;100933.27;106001;1257;61836;-55
2023/04/19 00:42:02;;;;;;;17.30;4.80;;;;;;;5.42;100.00;100933.58;105904;1252;73427;-55
2023/04/19 00:44:31;;;;;;;19.80;5.50;;;;;;;5.41;100.00;100936.30;105733;1256;66139;-51
2023/04/19 00:47:00;;;;;;;16.80;4.60;;;;;;;5.40;100.00;100943.99;105955;1254;74249;-52
2023/04/19 00:49:29;;;;;;;23.40;5.20;;;;;;;5.39;100.00;100945.52;105993;1257;62144;-55
2023/04/19 00:51:59;;;;;;;12.50;4.80;;;;;;;5.38;100.00;100944.48;106042;1253;61868;-51
2023/04/19 00:54:27;;;;;;;17.70;4.50;;;;;;;5.35;100.00;100944.81;105937;1252;73872;-51
2023/04/19 00:56:57;;;;;;;21.30;5.10;;;;;;;5.33;100.00;100944.10;105786;1258;66124;-51
2023/04/19 00:59:25;;;;;;;14.40;4.80;;;;;;;5.28;100.00;100941.30;105967;1254;74508;-51
2023/04/19 01:01:54;;;;;;;19.30;4.70;;;;;;;5.24;100.00;100938.70;105771;1257;61697;-51
2023/04/19 01:04:23;;;;;;;13.80;4.70;;;;;;;5.22;100.00;100934.05;105965;1256;61698;-51
2023/04/19 01:06:51;;;;;;;12.10;4.90;;;;;;;5.20;100.00;100937.46;105764;1257;74458;-51
2023/04/19 01:09:21;;;;;;;23.70;5.40;;;;;;;5.16;100.00;100938.27;105975;1256;66372;-49
2023/04/19 01:11:49;;;;;;;27.00;5.20;;;;;;;5.12;100.00;100943.02;105990;1253;74202;-50
2023/04/19 01:14:18;;;;;;;26.40;5.60;;;;;;;5.08;100.00;100945.00;105969;1253;61128;-50
2023/04/19 01:16:47;;;;;;;17.50;5.60;;;;;;;5.04;100.00;100941.70;105969;1254;61515;-50
2023/04/19 01:19:15;;;;;;;17.30;5.40;;;;;;;5.01;100.00;100933.63;105713;1257;74246;-50
2023/04/19 01:21:45;;;;;;;20.30;5.60;;;;;;;4.98;100.00;100930.02;105905;1253;66084;-49
2023/04/19 01:24:13;;;;;;;24.70;4.90;;;;;;;4.97;100.00;100929.14;105892;1257;74162;-50
2023/04/19 01:26:43;;;;;;;16.30;5.10;;;;;;;4.96;100.00;100926.73;105961;1255;61581;-55
2023/04/19 01:29:11;;;;;;;17.10;5.50;;;;;;;4.93;100.00;100925.16;105998;1251;61730;-53
2023/04/19 01:31:39;;;;;;;26.80;5.30;;;;;;;4.96;100.00;100930.68;105714;1256;74382;-52
2023/04/19 01:34:08;;;;;;;32.70;5.40;;;;;;;5.01;100.00;100929.53;105693;1257;66202;-52
2023/04/19 01:36:38;;;;;;;24.70;4.80;;;;;;;5.09;100.00;100924.15;105989;1257;74164;-53
2023/04/19 01:39:07;;;;;;;21.00;5.10;;;;;;;5.14;100.00;100924.55;105974;1255;61671;-51
2023/04/19 01:41:35;;;;;;;23.70;4.60;;;;;;;5.20;100.00;100918.63;106013;1251;61610;-50
2023/04/19 01:44:03;;;;;;;20.50;4.30;;;;;;;5.28;100.00;100923.34;105951;1253;74534;-51
2023/04/19 01:46:32;;;;;;;25.10;4.50;;;;;;;5.35;100.00;100919.64;105935;1257;65990;-51
2023/04/19 01:49:01;;;;;;;24.20;4.40;;;;;;;5.35;100.00;100916.90;105931;1254;73897;-50
2023/04/19 01:51:29;;;;;;;22.80;4.60;;;;;;;5.32;100.00;100911.41;105982;1256;61617;-50
2023/04/19 01:53:58;;;;;;;23.70;5.10;;;;;;;5.29;100.00;100907.26;105971;1257;59612;-51
2023/04/19 01:56:26;;;;;;;24.40;4.60;;;;;;;5.27;100.00;100905.86;105960;1254;74539;-51
2023/04/19 01:58:55;;;;;;;16.70;3.50;;;;;;;5.24;100.00;100904.12;105884;1257;65842;-52
2023/04/19 02:01:24;;;;;;;23.40;4.80;;;;;;;5.22;100.00;100900.67;105737;1257;73227;-50
2023/04/19 02:03:53;;;;;;;30.20;4.40;;;;;;;5.19;100.00;100896.03;105741;1257;62538;-50
2023/04/19 02:06:21;;;;;;;22.30;5.00;;;;;;;5.17;100.00;100889.33;106010;1257;61582;-51
2023/04/19 02:08:51;;;;;;;23.00;4.20;;;;;;;5.20;100.00;100879.79;106005;1256;74342;-51
2023/04/19 02:11:20;;;;;;;22.50;4.20;;;;;;;5.25;100.00;100878.30;105905;1256;66000;-51
2023/04/19 02:13:49;;;;;;;21.80;5.80;;;;;;;5.29;100.00;100869.09;105970;1254;74368;-50
2023/04/19 02:16:17;;;;;;;18.00;4.10;;;;;;;5.36;100.00;100857.52;105833;1256;62554;-50
2023/04/19 02:18:47;;;;;;;12.40;4.70;;;;;;;5.46;100.00;100850.09;105701;1252;61707;-51
2023/04/19 02:21:15;;;;;;;15.20;4.20;;;;;;;5.57;100.00;100836.98;105747;1258;75078;-51
2023/04/19 02:23:43;;;;;;;19.90;4.70;;;;;;;5.63;100.00;100823.35;105920;1255;66041;-50
2023/04/19 02:26:12;;;;;;;15.40;4.70;;;;;;;5.65;100.00;100800.75;105780;1254;74186;-51
2023/04/19 02:28:43;;;;;;;16.70;4.00;;;;;;;5.65;100.00;100780.05;105953;1256;63427;-51
2023/04/19 02:33:27;;;;;;;16.50;4.20;;;;;;;5.64;100.00;100758.29;102610;1295;600901;-50
2023/04/19 02:35:56;;;;;;;26.20;4.60;;;;;;;5.60;100.00;100721.10;104778;1272;62176;-50
2023/04/19 02:38:28;;;;;;;14.20;3.90;;;;;;;5.60;100.00;100708.95;104802;1267;62021;-51
2023/04/19 02:40:56;;;;;;;24.20;4.30;;;;;;;5.61;100.00;100697.14;104795;1271;73602;-51
2023/04/19 02:43:24;;;;;;;21.10;4.20;;;;;;;5.62;100.00;100685.66;104793;1271;65924;-52
2023/04/19 02:45:53;;;;;;;21.40;5.10;;;;;;;5.59;100.00;100674.54;104764;1271;73953;-52
2023/04/19 02:48:22;;;;;;;19.10;4.90;;;;;;;5.56;100.00;100658.23;104804;1268;60270;-52
2023/04/19 02:50:51;;;;;;;24.30;4.40;;;;;;;5.54;100.00;100645.39;104915;1269;61634;-51
2023/04/19 02:53:20;;;;;;;23.90;5.60;;;;;;;5.54;100.00;100628.27;104939;1269;73862;-50
2023/04/19 02:55:49;;;;;;;21.90;4.40;;;;;;;5.50;100.00;100611.30;104955;1268;66087;-50
2023/04/19 02:58:19;;;;;;;21.60;4.30;;;;;;;5.49;100.00;100598.46;104953;1271;74020;-50
2023/04/19 03:01:08;;;;;;;23.80;4.50;;;;;;;5.44;100.00;100587.66;104915;1270;62059;-50
2023/04/19 03:03:37;;;;;;;27.50;4.20;;;;;;;5.42;100.00;100582.85;104930;1266;61598;-50
2023/04/19 03:06:07;;;;;;;23.30;4.30;;;;;;;5.39;100.00;100574.11;104836;1271;74968;-50
2023/04/19 03:08:36;;;;;;;28.80;4.50;;;;;;;5.36;100.00;100568.27;104969;1269;66171;-50
2023/04/19 03:11:05;;;;;;;18.40;4.70;;;;;;;5.33;100.00;100565.70;104974;1270;74192;-51
2023/04/19 03:13:34;;;;;;;23.20;4.30;;;;;;;5.32;100.00;100563.46;104925;1270;61736;-50
2023/04/19 03:16:02;;;;;;;28.80;3.80;;;;;;;5.33;100.00;100563.30;105645;1259;61834;-50
2023/04/19 03:18:31;;;;;;;11.30;3.80;;;;;;;5.37;100.00;100565.19;105648;1258;74621;-50
2023/04/19 03:21:01;;;;;;;21.40;3.60;;;;;;;5.40;100.00;100564.87;105698;1258;65955;-50
2023/04/19 03:23:34;;;;;;;22.10;4.40;;;;;;;5.38;100.00;100562.80;105693;1254;73013;-51
2023/04/19 03:26:03;;;;;;;20.00;5.10;;;;;;;5.36;100.00;100560.40;105665;1258;61594;-50
2023/04/19 03:28:44;;;;;;;16.10;4.50;;;;;;;5.34;100.00;100563.30;105658;1259;61718;-52
2023/04/19 03:31:22;;;;;;;14.90;4.00;;;;;;;5.34;100.00;100566.38;105670;1259;74550;-51
2023/04/19 03:33:51;;;;;;;24.80;4.40;;;;;;;5.36;100.00;100571.17;105666;1259;65356;-51
2023/04/19 03:36:23;;;;;;;22.70;4.10;;;;;;;5.37;100.00;100573.40;105683;1259;74521;-52
2023/04/19 03:38:52;;;;;;;20.40;4.40;;;;;;;5.38;100.00;100579.58;105725;1258;61910;-51
2023/04/19 03:41:23;;;;;;;13.40;4.10;;;;;;;5.39;100.00;100583.00;105665;1259;61601;-51
2023/04/19 03:44:07;;;;;;;21.80;4.80;;;;;;;5.40;100.00;100581.47;105711;1258;74612;-50
2023/04/19 03:46:36;;;;;;;22.70;4.00;;;;;;;5.43;100.00;100587.14;105686;1254;66317;-51
2023/04/19 03:49:05;;;;;;;26.70;4.20;;;;;;;5.50;100.00;100593.16;105690;1259;74097;-51
2023/04/19 03:51:34;;;;;;;19.60;4.20;;;;;;;5.58;100.00;100603.29;105610;1258;61952;-50
2023/04/19 03:54:03;;;;;;;21.20;4.70;;;;;;;5.65;100.00;100606.57;105673;1259;60558;-51
2023/04/19 03:56:34;;;;;;;22.00;3.90;;;;;;;5.75;100.00;100614.67;105595;1258;74534;-50
2023/04/19 03:59:02;;;;;;;22.90;4.50;;;;;;;5.88;100.00;100620.88;105633;1261;65975;-50
2023/04/19 04:01:32;;;;;;;17.70;4.20;;;;;;;6.07;100.00;100616.33;105646;1259;73860;-51
2023/04/19 04:04:02;;;;;;;19.70;3.90;;;;;;;6.29;100.00;100607.48;105664;1260;59833;-50
2023/04/19 04:06:40;;;;;;;21.40;4.10;;;;;;;6.57;100.00;100593.80;105658;1259;60808;-51
2023/04/19 04:09:08;;;;;;;15.60;3.70;;;;;;;6.87;100.00;100563.77;105685;1258;74410;-52
2023/04/19 04:11:37;;;;;;;21.10;3.40;;;;;;;7.19;100.00;100520.95;105699;1258;64585;-52
2023/04/19 04:14:06;;;;;;;15.30;3.30;;;;;;;7.52;100.00;100460.38;105630;1261;73606;-51
2023/04/19 04:16:37;;;;;;;15.00;4.10;;;;;;;7.84;100.00;100373.93;105641;1259;60878;-52
2023/04/19 04:19:06;;;;;;;25.40;4.40;;;;;;;8.15;100.00;100276.36;105662;1259;61646;-53
2023/04/19 04:21:37;;;;;;;13.40;3.70;;;;;;;8.44;100.00;100165.27;105640;1259;74516;-53
2023/04/19 04:24:06;;;;;;;25.20;4.20;;;;;;;8.66;100.00;100092.75;105656;1258;65854;-53
2023/04/19 04:26:59;;;;;;;26.70;5.50;;;;;;;8.86;100.00;100063.52;105268;1262;74279;-51
2023/04/19 04:29:32;;;;;;;22.90;4.30;;;;;;;8.97;100.00;100076.75;105588;1259;61822;-52
2023/04/19 04:32:07;;;;;;;30.90;6.20;;;;;;;9.04;100.00;100100.89;105669;1259;59797;-52
2023/04/19 04:34:38;;;;;;;37.80;9.80;;;;;;;9.11;100.00;100117.28;105651;1258;74179;-55
2023/04/19 04:37:10;;;;;;;22.30;5.60;;;;;;;9.20;100.00;100137.26;105714;1258;65898;-55
2023/04/19 04:39:39;;;;;;;20.90;4.00;;;;;;;9.25;100.00;100151.46;105348;1254;73143;-53
2023/04/19 04:42:09;;;;;;;26.70;4.80;;;;;;;9.29;100.00;100165.87;105567;1261;61595;-54
2023/04/19 04:44:40;;;;;;;25.90;4.10;;;;;;;9.30;100.00;100180.65;105690;1255;62126;-54
2023/04/19 04:47:12;;;;;;;24.90;4.50;;;;;;;9.27;100.00;100204.30;105629;1259;73603;-51
2023/04/19 04:49:48;;;;;;;31.90;4.60;;;;;;;9.25;100.00;100213.82;105635;1260;66120;-52
2023/04/19 04:52:17;;;;;;;28.10;4.50;;;;;;;9.19;100.00;100214.77;105645;1258;73205;-51
2023/04/19 04:54:55;;;;;;;33.20;6.90;;;;;;;9.17;100.00;100209.97;105668;1267;61534;-52
2023/04/19 04:57:28;;;;;;;19.70;6.40;;;;;;;9.17;100.00;100202.05;105674;1254;61619;-51
2023/04/19 04:59:57;;;;;;;31.70;6.00;;;;;;;9.18;100.00;100200.66;105654;1259;74374;-51
2023/04/19 05:02:27;;;;;;;42.30;11.00;;;;;;;9.20;100.00;100195.11;105818;1258;65286;-51
2023/04/19 05:04:56;;;;;;;24.90;6.50;;;;;;;9.24;100.00;100185.77;105654;1258;73889;-51
2023/04/19 05:07:26;;;;;;;30.90;5.10;;;;;;;9.26;100.00;100185.03;105649;1259;61588;-51
2023/04/19 05:09:56;;;;;;;27.70;6.00;;;;;;;9.29;100.00;100189.98;105697;1258;61664;-51
2023/04/19 05:12:27;;;;;;;35.30;4.70;;;;;;;9.33;100.00;100195.77;105685;1258;74365;-50
2023/04/19 05:14:56;;;;;;;25.00;4.80;;;;;;;9.34;100.00;100197.45;105733;1258;65864;-50
2023/04/19 05:17:24;;;;;;;33.20;5.20;;;;;;;9.34;100.00;100196.44;105688;1259;74145;-49
2023/04/19 05:19:53;;;;;;;27.30;5.20;;;;;;;9.32;100.00;100195.61;105689;1260;61693;-52
2023/04/19 05:22:22;;;;;;;39.50;5.10;;;;;;;9.33;100.00;100183.02;105694;1259;61540;-51
2023/04/19 05:24:51;;;;;;;32.80;5.00;;;;;;;9.41;100.00;100177.70;105674;1257;74509;-50
2023/04/19 05:27:19;;;;;;;34.00;4.60;;;;;;;9.46;100.00;100179.85;105652;1260;66060;-51
2023/04/19 05:29:50;;;;;;;23.90;4.20;;;;;;;9.50;100.00;100182.20;105658;1259;74141;-51
2023/04/19 05:32:19;;;;;;;30.50;4.90;;;;;;;9.55;100.00;100183.14;105646;1259;61593;-51
2023/04/19 05:34:54;;;;;;;35.80;5.60;;;;;;;9.61;100.00;100185.79;105668;1255;61595;-52
2023/04/19 05:37:23;;;;;;;27.10;6.50;;;;;;;9.73;100.00;100178.68;105673;1258;74069;-52
2023/04/19 05:39:53;;;;;;;48.70;7.30;;;;;;;9.86;100.00;100175.33;105614;1261;65976;-52
2023/04/19 05:42:22;;;;;;;42.70;7.20;;;;;;;9.94;100.00;100174.48;105672;1255;73219;-52
2023/04/19 05:44:51;;;;;;;38.70;8.10;;;;;;;9.97;100.00;100176.67;105664;1260;61592;-52
2023/04/19 05:47:20;;;;;;;42.80;8.60;;;;;;;10.05;100.00;100172.53;105689;1260;60616;-50
2023/04/19 05:49:58;;;;;;;37.80;7.10;;;;;;;10.12;100.00;100176.69;105676;1259;74544;-50
2023/04/19 05:52:33;;;;;;;39.00;7.70;;;;;;;10.19;100.00;100177.58;105691;1260;65911;-51
2023/04/19 05:55:02;;;;;;;34.50;6.60;;;;;;;10.31;100.00;100166.64;105674;1260;73852;-52
2023/04/19 05:57:32;;;;;;;37.60;6.10;;;;;;;10.41;100.00;100166.77;105688;1258;61723;-51
2023/04/19 06:00:01;;;;;;;44.80;7.00;;;;;;;10.48;100.00;100175.77;105656;1257;60496;-52
2023/04/19 06:02:40;;;;;;;30.60;6.20;;;;;;;10.47;100.00;100185.63;105644;1256;74390;-51
2023/04/19 06:05:10;;;;;;;38.10;7.00;;;;;;;10.53;100.00;100182.76;105616;1255;65808;-51
2023/04/19 06:07:40;;;;;;;31.90;5.80;;;;;;;10.60;100.00;100180.70;105665;1267;74646;-52
2023/04/19 06:10:22;;;;;;;46.00;5.40;;;;;;;10.66;100.00;100184.17;105645;1258;60714;-52
2023/04/19 06:12:50;;;;;;;47.70;7.20;;;;;;;10.79;100.00;100179.73;105687;1260;60879;-52
2023/04/19 06:15:19;;;;;;;47.20;6.10;;;;;;;10.92;100.00;100185.98;105656;1255;73891;-52
2023/04/19 06:17:48;;;;;;;45.10;6.10;;;;;;;11.03;100.00;100196.09;105627;1260;66291;-51
2023/04/19 06:20:17;;;;;;;33.50;5.60;;;;;;;11.16;100.00;100200.59;105652;1254;73914;-52
2023/04/19 06:22:45;;;;;;;59.50;6.30;;;;;;;11.36;100.00;100206.48;105649;1254;60936;-53
2023/04/19 06:25:13;;;;;;;55.20;6.00;;;;;;;11.54;100.00;100224.17;105643;1259;61550;-51
2023/04/19 06:27:42;;;;;;;42.60;6.40;;;;;;;11.59;100.00;100242.89;105673;1254;74446;-51
2023/04/19 06:30:10;;;;;;;56.80;6.30;;;;;;;11.58;100.00;100250.86;105656;1258;65932;-51
2023/04/19 06:32:39;;;;;;;59.10;6.80;;;;;;;11.68;100.00;100253.36;105677;1255;73837;-52
2023/04/19 06:35:08;;;;;;;50.60;6.40;;;;;;;11.80;100.00;100267.40;105679;1259;63245;-51
2023/04/19 06:37:37;;;;;;;66.00;6.20;;;;;;;11.99;100.00;100260.33;105685;1260;61718;-52
2023/04/19 06:40:07;;;;;;;35.90;5.80;;;;;;;12.30;100.00;100263.48;105673;1254;74445;-51
2023/04/19 06:42:36;;;;;;;42.20;6.70;;;;;;;12.41;100.00;100298.30;105695;1254;65200;-51
2023/04/19 06:45:07;;;;;;;51.80;6.50;;;;;;;12.43;100.00;100306.39;105652;1254;74121;-52
2023/04/19 06:47:36;;;;;;;46.20;6.10;;;;;;;12.38;100.00;100315.52;105648;1258;60910;-53
2023/04/19 06:50:05;;;;;;;58.40;6.90;;;;;;;12.49;100.00;100300.33;105658;1255;61631;-51
2023/04/19 06:52:33;;;;;;;60.50;6.30;;;;;;;12.63;100.00;100302.86;105679;1259;75397;-50
2023/04/19 06:55:02;;;;;;;41.90;6.40;;;;;;;12.76;100.00;100311.65;105652;1254;66031;-51
2023/04/19 06:57:31;;;;;;;56.70;6.40;;;;;;;12.86;100.00;100319.52;105614;1258;74197;-52
2023/04/19 06:59:59;;;;;;;59.20;7.10;;;;;;;12.92;100.00;100322.96;105690;1258;61608;-52
2023/04/19 07:02:27;;;;;;;57.10;5.90;;;;;;;13.06;100.00;100319.42;105691;1254;61682;-52
2023/04/19 07:04:56;;;;;;;66.20;6.60;;;;;;;13.15;100.00;100328.83;105645;1254;75088;-52
2023/04/19 07:07:24;;;;;;;62.50;7.00;;;;;;;13.04;100.00;100345.65;105681;1260;65957;-51
2023/04/19 07:09:53;;;;;;;32.40;5.20;;;;;;;12.95;100.00;100340.19;105657;1254;74183;-51
2023/04/19 07:12:21;;;;;;;61.30;6.30;;;;;;;12.93;100.00;100332.10;105658;1258;63239;-51
2023/04/19 07:14:55;;;;;;;70.50;6.40;;;;;;;12.98;100.00;100315.33;105608;1254;61237;-51
2023/04/19 07:17:23;;;;;;;61.00;6.30;;;;;;;13.07;100.00;100309.00;105634;1259;75387;-52
2023/04/19 07:19:52;;;;;;;67.10;7.30;;;;;;;13.08;100.00;100318.85;105655;1259;65580;-52
2023/04/19 07:22:21;;;;;;;52.20;6.20;;;;;;;13.09;100.00;100312.03;105660;1255;73893;-52
2023/04/19 07:24:51;;;;;;;47.30;5.60;;;;;;;13.19;100.00;100309.98;105711;1259;61887;-51
2023/04/19 07:27:19;;;;;;;55.60;5.20;;;;;;;13.22;100.00;100312.85;105704;1254;61644;-52
2023/04/19 07:29:48;;;;;;;49.80;5.80;;;;;;;13.25;100.00;100322.13;105669;1255;75139;-51
2023/04/19 07:32:16;;;;;;;75.60;7.00;;;;;;;13.37;100.00;100324.67;105705;1258;65954;-51
2023/04/19 07:34:45;;;;;;;54.30;7.30;;;;;;;13.45;100.00;100335.58;105636;1254;74056;-52
2023/04/19 07:37:13;;;;;;;48.70;7.40;;;;;;;13.67;100.00;100340.41;105653;1258;63770;-51
2023/04/19 07:39:41;;;;;;;63.60;6.40;;;;;;;13.82;100.00;100349.30;105656;1259;61641;-51
2023/04/19 07:42:10;;;;;;;44.10;7.20;;;;;;;13.91;100.00;100351.23;105698;1258;75100;-52
2023/04/19 07:44:38;;;;;;;61.00;6.60;;;;;;;13.96;100.00;100368.25;105683;1258;65841;-55
2023/04/19 07:47:06;;;;;;;66.80;7.40;;;;;;;13.83;100.00;100377.88;105627;1254;74064;-53
2023/04/19 07:49:35;;;;;;;54.60;5.90;;;;;;;13.75;100.00;100377.94;105296;1260;61932;-52
2023/04/19 07:52:06;;;;;;;72.00;7.10;;;;;;;13.71;100.00;100375.13;105630;1254;60884;-52
2023/04/19 07:54:37;;;;;;;54.70;6.00;;;;;;;13.62;100.00;100381.48;105681;1254;74855;-52
2023/04/19 07:57:06;;;;;;;63.50;6.80;;;;;;;13.52;100.00;100376.60;105669;1254;65072;-52
2023/04/19 07:59:35;;;;;;;61.90;6.00;;;;;;;13.39;100.00;100380.61;105652;1259;73908;-52
2023/04/19 08:02:04;;;;;;;65.00;7.40;;;;;;;13.32;100.00;100376.67;105663;1258;63377;-52
2023/04/19 08:04:33;;;;;;;63.10;6.60;;;;;;;13.32;100.00;100370.93;105668;1254;61541;-54
2023/04/19 08:07:03;;;;;;;62.90;6.80;;;;;;;13.26;100.00;100365.94;105552;1258;75338;-54
2023/04/19 08:09:33;;;;;;;55.20;6.80;;;;;;;13.20;100.00;100364.91;105359;1260;65855;-51
2023/04/19 08:12:01;;;;;;;56.00;6.20;;;;;;;13.10;100.00;100363.82;105669;1255;74122;-53
2023/04/19 08:14:30;;;;;;;73.00;7.20;;;;;;;13.12;100.00;100341.08;105663;1259;63319;-55
2023/04/19 08:17:11;;;;;;;76.00;7.80;;;;;;;13.06;100.00;100322.02;105667;1254;61424;-51
2023/04/19 08:19:55;;;;;;;81.30;9.00;;;;;;;12.99;100.00;100284.65;105697;1258;75381;-51
2023/04/19 08:22:24;;;;;;;65.80;6.50;;;;;;;12.86;100.00;100253.34;105701;1260;66182;-51
2023/04/19 08:24:52;;;;;;;74.00;7.60;;;;;;;12.67;100.00;100216.88;105655;1254;73996;-52
2023/04/19 08:27:21;;;;;;;56.90;6.80;;;;;;;12.50;100.00;100178.96;105617;1254;63464;-51
2023/04/19 08:29:50;;;;;;;60.70;8.70;;;;;;;12.36;100.00;100143.06;105616;1254;61595;-52
2023/04/19 08:32:18;;;;;;;80.00;7.60;;;;;;;12.20;100.00;100115.86;105659;1256;74682;-52
2023/04/19 08:34:47;;;;;;;75.10;8.30;;;;;;;12.06;100.00;100088.61;105664;1260;66251;-53
2023/04/19 08:37:15;;;;;;;48.00;6.30;;;;;;;11.93;100.00;100067.88;105645;1254;74614;-52
2023/04/19 08:39:44;;;;;;;60.00;6.90;;;;;;;11.88;100.00;100056.43;105650;1258;62609;-51
2023/04/19 08:42:12;;;;;;;62.90;6.30;;;;;;;11.87;100.00;100052.15;105675;1254;61873;-51
2023/04/19 08:44:45;;;;;;;65.00;6.80;;;;;;;11.91;100.00;100044.76;105635;1258;75141;-53
2023/04/19 08:47:34;;;;;;;63.90;6.80;;;;;;;11.98;100.00;100043.17;105635;1259;66067;-52
2023/04/19 08:50:20;;;;;;;81.80;7.20;;;;;;;12.04;100.00;100038.35;105639;1254;74076;-51
2023/04/19 08:53:01;;;;;;;60.00;5.80;;;;;;;12.10;100.00;100042.84;105661;1258;61731;-52
2023/04/19 08:55:49;;;;;;;58.80;6.60;;;;;;;12.18;100.00;100052.77;105616;1254;61861;-54
2023/04/19 08:58:38;;;;;;;63.10;6.20;;;;;;;12.33;100.00;100050.39;105607;1254;75449;-53
2023/04/19 09:01:26;;;;;;;55.30;5.60;;;;;;;12.51;100.00;100064.54;105636;1259;66043;-52
2023/04/19 09:04:05;;;;;;;69.40;6.10;;;;;;;12.67;100.00;100070.44;105627;1254;74104;-52
2023/04/19 09:06:53;;;;;;;64.80;6.20;;;;;;;12.77;100.00;100086.89;105623;1258;61848;-52
2023/04/19 09:09:23;;;;;;;69.50;6.20;;;;;;;12.84;100.00;100098.77;105661;1258;61296;-52
2023/04/19 09:12:16;;;;;;;49.70;5.40;;;;;;;12.91;100.00;100117.60;105664;1259;75065;-52
2023/04/19 09:14:46;;;;;;;48.90;6.80;;;;;;;12.92;100.00;100123.11;105666;1254;65925;-51
2023/04/19 09:17:31;;;;;;;46.50;5.30;;;;;;;12.94;100.00;100128.55;105667;1254;73017;-52
2023/04/19 09:20:00;;;;;;;67.80;6.20;;;;;;;12.97;100.00;100148.73;105681;1258;61808;-50
2023/04/19 09:22:29;;;;;;;50.40;6.80;;;;;;;12.96;100.00;100162.99;105664;1254;61558;-51
2023/04/19 09:24:58;;;;;;;59.30;7.00;;;;;;;13.00;100.00;100172.89;105646;1255;75100;-52
2023/04/19 09:27:32;;;;;;;68.70;6.20;;;;;;;13.06;100.00;100179.98;105672;1254;66937;-52
2023/04/19 09:30:01;;;;;;;48.80;5.00;;;;;;;13.18;100.00;100186.15;105637;1254;73924;-51
2023/04/19 09:32:44;;;;;;;49.20;5.20;;;;;;;13.28;100.00;100202.12;105646;1256;61881;-51
2023/04/19 09:35:13;;;;;;;51.50;5.50;;;;;;;13.34;100.00;100230.15;105674;1256;60788;-53
2023/04/19 09:37:42;;;;;;;45.70;5.50;;;;;;;13.40;100.00;100231.18;105632;1258;75347;-51
2023/04/19 09:40:23;;;;;;;49.90;6.00;;;;;;;13.57;100.00;100226.14;105608;1261;65981;-52
2023/04/19 09:42:51;;;;;;;63.20;6.70;;;;;;;13.76;100.00;100227.04;105654;1254;73879;-52
2023/04/19 09:45:23;;;;;;;38.10;5.60;;;;;;;13.98;100.00;100240.65;105620;1254;60975;-52
2023/04/19 09:48:08;;;;;;;53.20;5.10;;;;;;;14.16;100.00;100267.08;105647;1254;61593;-52
2023/04/19 09:50:56;;;;;;;52.70;6.30;;;;;;;14.22;100.00;100305.91;105656;1258;75258;-51
2023/04/19 09:53:33;;;;;;;52.00;5.40;;;;;;;14.27;100.00;100321.69;105672;1254;66585;-51
2023/04/19 09:56:04;;;;;;;47.30;5.40;;;;;;;14.35;100.00;100323.67;105610;1254;72988;-53
2023/04/19 09:58:33;;;;;;;58.30;6.20;;;;;;;14.48;100.00;100329.44;105654;1259;61755;-51
2023/04/19 10:01:18;;;;;;;53.70;6.00;;;;;;;14.61;100.00;100347.90;105685;1258;60812;-51
2023/04/19 10:03:48;;;;;;;48.80;6.30;;;;;;;14.71;100.00;100355.90;105604;1260;75289;-51
2023/04/19 10:06:18;;;;;;;46.70;5.80;;;;;;;14.77;100.00;100365.75;105656;1254;64960;-52
2023/04/19 10:08:50;;;;;;;63.60;6.80;;;;;;;14.92;100.00;100373.71;105664;1254;73595;-49
2023/04/19 10:11:24;;;;;;;71.00;6.40;;;;;;;14.92;100.00;100380.81;105662;1254;61988;-52
2023/04/19 10:13:54;;;;;;;45.60;5.90;;;;;;;14.89;100.00;100383.20;105644;1256;60420;-52
2023/04/19 10:16:23;;;;;;;61.80;5.70;;;;;;;14.88;100.00;100384.98;105634;1256;75372;-52
2023/04/19 10:18:51;;;;;;;46.90;5.70;;;;;;;14.87;100.00;100389.01;105660;1258;65971;-52
2023/04/19 10:21:20;;;;;;;60.80;6.20;;;;;;;14.81;100.00;100390.30;105617;1254;74035;-52
2023/04/19 10:23:49;;;;;;;61.70;6.30;;;;;;;14.74;100.00;100391.23;105641;1259;62131;-52
2023/04/19 10:26:17;;;;;;;52.70;6.30;;;;;;;14.72;100.00;100382.28;105621;1254;61049;-52
2023/04/19 10:28:46;;;;;;;45.90;6.40;;;;;;;14.70;100.00;100379.38;105589;1256;75146;-52
2023/04/19 10:31:18;;;;;;;49.10;6.10;;;;;;;14.61;100.00;100380.88;105636;1258;66817;-52
2023/04/19 10:33:46;;;;;;;47.90;7.20;;;;;;;14.63;100.00;100376.14;105583;1254;74027;-52
2023/04/19 10:36:16;;;;;;;61.70;6.90;;;;;;;14.69;100.00;100366.39;105655;1258;60880;-52
2023/04/19 10:38:54;;;;;;;63.80;7.00;;;;;;;14.71;100.00;100377.10;105652;1254;61542;-52
2023/04/19 10:41:22;;;;;;;57.80;6.00;;;;;;;14.55;100.00;100396.39;105692;1254;74398;-54
2023/04/19 10:43:54;;;;;;;47.00;6.80;;;;;;;14.56;100.00;100385.77;105652;1258;65960;-53
2023/04/19 10:46:27;;;;;;;55.60;6.50;;;;;;;14.61;100.00;100389.06;105660;1257;74703;-52
2023/04/19 10:48:57;;;;;;;55.10;6.50;;;;;;;14.69;100.00;100383.73;105657;1254;61195;-53
2023/04/19 10:51:27;;;;;;;52.80;5.70;;;;;;;14.75;100.00;100387.36;105726;1256;61493;-53
2023/04/19 10:53:56;;;;;;;59.60;5.90;;;;;;;14.75;100.00;100391.71;105360;1258;75060;-53
2023/04/19 10:56:33;;;;;;;54.70;6.50;;;;;;;14.81;100.00;100392.73;105528;1254;64375;-53
2023/04/19 10:59:12;;;;;;;60.50;6.40;;;;;;;14.94;100.00;100383.73;105658;1254;74204;-53
2023/04/19 11:01:45;;;;;;;51.50;6.10;;;;;;;15.04;100.00;100388.55;105666;1255;62201;-52
2023/04/19 11:04:26;;;;;;;48.60;5.80;;;;;;;15.13;100.00;100392.20;105649;1254;61828;-52
2023/04/19 11:06:59;;;;;;;61.00;6.00;;;;;;;15.08;100.00;100397.63;105646;1254;75384;-52
2023/04/19 11:09:33;;;;;;;52.00;5.70;;;;;;;15.07;100.00;100401.28;105656;1254;64386;-52
2023/04/19 11:12:09;;;;;;;48.70;6.20;;;;;;;15.06;100.00;100399.25;105663;1254;74077;-52
2023/04/19 11:14:48;;;;;;;45.60;5.00;;;;;;;15.15;100.00;100393.69;105652;1258;60543;-51
2023/04/19 11:17:24;;;;;;;38.10;5.70;;;;;;;15.29;100.00;100392.14;105619;1258;61184;-52
2023/04/19 11:19:57;;;;;;;38.40;4.70;;;;;;;15.34;100.00;100392.98;105690;1256;75190;-52
2023/04/19 11:22:35;;;;;;;50.20;5.90;;;;;;;15.33;100.00;100398.23;105656;1254;65046;-52
2023/04/19 11:25:11;;;;;;;47.80;5.20;;;;;;;15.31;100.00;100401.61;105630;1254;74177;-51